Braddock, North Dakota
Current Conditions -  °F | °C
As of 8:15 PM on Saturday 25 Oct 2014 (Local Time) from K7L2 Reporting Station
Clear Clear  
Wind Chill: 42°   Ceiling: Unl
Heat Index: 46°   Visibility: 10mi
Dew Point: 32°   Wind: 9mph
Humidity: 57%   Direction: 140°SE
Pressure: 30.01"   Gusts: NA
Location:  46.56°N, 100.09°W
Report Text: K7L2 260115Z AUTO 14008KT 10SM CLR 08/00 A3001 RMK AO2 PWINO PNO
Loading
Personal Weather Stations






























Interactive Weather Map
Tropical Storm Tracking
New forecast layout! Learn more

10-Day Weather Forecast

Advertisements
Track Severe Weather on mobile